Main page
METAR-TAF:

METAR-TAF

Airports :

N'djili Airport

Kinshasa, Congo

latitude: 04-23S, longitude: 015-26E, elevation: 309 m

Current weather observation

The report was made 1 hour and 7 minutes ago, at 04:00 UTC
Wind 14 kt from the West
Temperature 24°C
Humidity 74%
Pressure 1016 hPa
Visibility 10 km or more
Broken clouds at a height of 1600 ft

METAR: FZAA 200400Z 27014KT 9999 BKN016 24/19 Q1016 NOSIG

Time: 06:07 (05:07 UTC)

Forecast

The report was made 6 hours and 7 minutes ago, at 23:00 UTC
Forecast valid from 20 at 00 UTC to 21 at 06 UTC
Wind 4 kt from the West/Southwest
Visibility: 8000 m
Broken clouds at a height of 1600 ft
Probability 30%
from 20 at 05 UTC to 20 at 09 UTC
Visibility: 4000 m
mist
Becoming
from 20 at 12 UTC to 20 at 14 UTC
Wind 10 kt from the Northwest
Scattered clouds at a height of 2400 ft
Becoming
from 20 at 20 UTC to 20 at 22 UTC
Wind 4 kt from the South

TAF: FZAA 192300Z 2000/2106 24004KT 8000 BKN016 PROB30 2005/2009 4000 BR BECMG 2012/2014 32010KT SCT024 BECMG 2020/2022 18004KT

Weather observations and forecasts of more than 4000 airports (METAR and TAF reports).

The available stations are represented by yellow and red dots on the map.

Hover mouse over dot to see the name of the station.

Then click to see weather observations and forecasts.

To change the map : click on the green buttons with a black cross to zoom in, on the green button with a dash to zoom out, or on the green arrows for adjacent maps.


METAR-TAF: